Time;durP1;ratioP1;P1;durP2;ratioP2;P2;SDS_P1;SDS_P2;PMS_P1;PMS_P2;Temp;Humidity;BMP_temperature;BMP_pressure;BME280_temperature;BME280_humidity;BME280_pressure;Samples;Min_cycle;Max_cycle;Signal;HPM_P1;HPM_P2
2024/04/09 00:00:49;;;;;;;11.77;3.90;;;18.60;51.20;;;;;;5438913;26;20628;-73
2024/04/09 00:03:19;;;;;;;22.10;4.30;;;18.60;48.80;;;;;;5446805;26;20577;-73
2024/04/09 00:05:48;;;;;;;12.73;3.57;;;18.40;50.30;;;;;;5446771;26;21093;-74
2024/04/09 00:08:16;;;;;;;11.37;4.37;;;18.40;51.20;;;;;;5451970;26;20598;-73
2024/04/09 00:10:43;;;;;;;17.83;3.83;;;18.30;52.10;;;;;;5438401;26;20549;-74
2024/04/09 00:13:12;;;;;;;18.80;4.10;;;18.20;51.60;;;;;;5448207;26;20546;-73
2024/04/09 00:15:40;;;;;;;15.00;3.97;;;18.20;52.60;;;;;;5446041;26;20566;-74
2024/04/09 00:18:14;;;;;;;10.20;3.40;;;18.10;51.20;;;;;;5445884;26;20565;-74
2024/04/09 00:20:42;;;;;;;14.67;4.33;;;18.10;51.50;;;;;;5441997;26;20715;-73
2024/04/09 00:23:16;;;;;;;15.13;4.83;;;18.00;52.60;;;;;;5447521;26;20554;-73
2024/04/09 00:25:44;;;;;;;10.30;3.40;;;18.00;51.20;;;;;;5445186;26;20678;-73
2024/04/09 00:28:13;;;;;;;15.57;3.80;;;17.90;51.00;;;;;;5447268;26;20554;-74
2024/04/09 00:30:40;;;;;;;12.83;3.73;;;17.80;50.40;;;;;;5434492;26;20597;-73
2024/04/09 00:33:09;;;;;;;5.20;3.10;;;17.70;50.00;;;;;;5448554;26;20677;-73
2024/04/09 00:35:35;;;;;;;11.03;3.60;;;17.70;51.50;;;;;;5449727;26;20546;-74
2024/04/09 00:38:06;;;;;;;16.07;3.57;;;17.60;51.70;;;;;;5448848;26;20609;-73
2024/04/09 00:40:36;;;;;;;11.57;2.90;;;17.60;49.40;;;;;;5448437;26;20614;-73
2024/04/09 00:43:07;;;;;;;14.30;4.67;;;17.70;52.10;;;;;;5435816;26;21506;-73
2024/04/09 00:45:33;;;;;;;9.40;3.10;;;17.70;51.40;;;;;;5441592;26;20561;-73
2024/04/09 00:48:02;;;;;;;7.63;3.33;;;17.60;50.80;;;;;;5448868;26;20562;-73
2024/04/09 00:50:30;;;;;;;10.17;3.27;;;17.50;48.80;;;;;;5447780;26;20617;-73
2024/04/09 00:53:01;;;;;;;9.43;3.17;;;17.50;50.50;;;;;;5447934;26;20714;-73
2024/04/09 00:55:27;;;;;;;9.60;4.03;;;17.60;50.60;;;;;;5451996;26;20550;-73
2024/04/09 00:58:00;;;;;;;9.33;3.30;;;17.60;51.10;;;;;;5454039;26;21016;-73
2024/04/09 01:00:27;;;;;;;8.77;3.40;;;17.60;52.80;;;;;;5437736;26;20969;-73
2024/04/09 01:02:56;;;;;;;7.93;3.90;;;17.60;53.60;;;;;;5440447;26;20564;-73
2024/04/09 01:05:23;;;;;;;10.30;3.00;;;17.50;51.60;;;;;;5441198;26;20568;-73
2024/04/09 01:07:52;;;;;;;8.03;3.50;;;17.50;53.50;;;;;;5445766;26;20557;-73
2024/04/09 01:10:19;;;;;;;10.97;3.93;;;17.40;54.70;;;;;;5450443;26;20624;-73
2024/04/09 01:12:47;;;;;;;10.80;3.33;;;17.40;53.00;;;;;;5446195;26;20637;-73
2024/04/09 01:15:17;;;;;;;11.90;3.60;;;17.40;54.40;;;;;;5445991;26;20584;-73
2024/04/09 01:17:46;;;;;;;9.07;3.40;;;17.50;54.90;;;;;;5447078;26;20613;-73
2024/04/09 01:20:13;;;;;;;9.57;3.50;;;17.40;55.10;;;;;;5435250;26;20549;-73
2024/04/09 01:22:45;;;;;;;8.60;3.10;;;17.40;54.70;;;;;;5447513;26;20664;-74
2024/04/09 01:25:11;;;;;;;7.60;3.60;;;17.40;54.90;;;;;;5449873;26;20577;-73
2024/04/09 01:27:40;;;;;;;6.73;2.77;;;17.40;56.00;;;;;;5451173;26;20988;-73
2024/04/09 01:30:12;;;;;;;11.33;4.03;;;17.40;54.80;;;;;;5443503;26;20616;-73
2024/04/09 01:32:44;;;;;;;9.43;4.03;;;17.40;55.10;;;;;;5450012;26;20569;-73
2024/04/09 01:35:14;;;;;;;10.90;3.30;;;17.40;55.80;;;;;;5440093;26;20558;-74
2024/04/09 01:37:46;;;;;;;8.20;2.80;;;17.30;55.70;;;;;;5441754;26;20618;-73
2024/04/09 01:40:13;;;;;;;8.67;3.10;;;17.30;55.30;;;;;;5449994;26;20964;-73
2024/04/09 01:42:44;;;;;;;9.83;3.30;;;17.20;53.80;;;;;;5446608;26;21122;-73
2024/04/09 01:45:12;;;;;;;9.07;3.07;;;17.10;53.00;;;;;;5448945;26;20557;-73
2024/04/09 01:47:41;;;;;;;12.57;4.10;;;17.10;54.00;;;;;;5447918;26;20566;-73
2024/04/09 01:50:10;;;;;;;16.00;6.03;;;17.20;56.20;;;;;;5448450;26;21072;-73
2024/04/09 01:52:42;;;;;;;7.53;3.47;;;17.10;53.40;;;;;;5442090;26;20957;-73
2024/04/09 01:55:12;;;;;;;8.43;2.50;;;17.00;54.00;;;;;;5445870;26;20560;-73
2024/04/09 01:57:40;;;;;;;10.27;4.43;;;17.00;54.80;;;;;;5448266;26;20565;-73
2024/04/09 02:00:11;;;;;;;16.90;4.87;;;17.00;59.40;;;;;;5448446;26;20557;-73
2024/04/09 02:02:46;;;;;;;9.80;3.77;;;17.00;62.20;;;;;;5449703;26;20555;-73
2024/04/09 02:05:14;;;;;;;13.10;4.33;;;17.00;60.90;;;;;;5449335;26;20621;-73
2024/04/09 02:07:43;;;;;;;8.40;3.23;;;17.00;60.80;;;;;;5433540;26;20582;-73
2024/04/09 02:10:13;;;;;;;10.43;4.43;;;17.00;61.60;;;;;;5435756;26;20641;-73
2024/04/09 02:12:42;;;;;;;8.30;3.50;;;17.00;60.50;;;;;;5447259;26;20566;-73
2024/04/09 02:15:12;;;;;;;10.63;5.13;;;16.90;60.50;;;;;;5440287;26;20645;-73
2024/04/09 02:17:41;;;;;;;13.27;4.30;;;16.80;58.50;;;;;;5445779;26;20838;-73
2024/04/09 02:20:10;;;;;;;15.13;3.73;;;16.80;59.50;;;;;;5445697;26;20571;-73
2024/04/09 02:22:39;;;;;;;14.80;4.13;;;16.90;61.00;;;;;;5445322;26;20613;-73
2024/04/09 02:25:07;;;;;;;12.70;4.00;;;16.90;60.60;;;;;;5442967;26;20556;-73
2024/04/09 02:27:39;;;;;;;8.70;3.50;;;16.90;59.80;;;;;;5449182;26;20559;-73
2024/04/09 02:30:09;;;;;;;9.47;3.00;;;16.80;60.00;;;;;;5447250;26;20616;-73
2024/04/09 02:32:39;;;;;;;9.80;3.63;;;16.80;60.10;;;;;;5449653;26;21213;-73
2024/04/09 02:35:10;;;;;;;10.10;3.33;;;16.70;59.40;;;;;;5447481;26;20609;-73
2024/04/09 02:37:40;;;;;;;16.33;4.30;;;16.80;60.20;;;;;;5447823;26;20607;-73
2024/04/09 02:40:15;;;;;;;7.40;3.47;;;16.80;60.00;;;;;;5445056;26;20602;-73
2024/04/09 02:42:49;;;;;;;13.10;3.87;;;16.80;59.90;;;;;;5449122;26;20581;-73
2024/04/09 02:45:18;;;;;;;14.50;5.30;;;16.80;58.70;;;;;;5441215;26;20560;-73
2024/04/09 02:47:47;;;;;;;13.37;3.70;;;16.70;58.50;;;;;;5436676;26;21087;-73
2024/04/09 02:50:15;;;;;;;11.10;5.00;;;16.70;56.80;;;;;;5448090;26;20599;-73
2024/04/09 02:52:49;;;;;;;12.87;4.10;;;16.70;57.20;;;;;;5442586;26;20638;-73
2024/04/09 02:55:17;;;;;;;12.93;4.30;;;16.70;55.20;;;;;;5449107;26;20565;-73
2024/04/09 02:57:52;;;;;;;12.13;4.00;;;16.70;55.80;;;;;;5442710;26;21126;-73
2024/04/09 03:00:19;;;;;;;14.63;4.67;;;16.70;56.40;;;;;;5447946;26;20602;-73
2024/04/09 03:02:53;;;;;;;12.87;3.57;;;16.60;57.50;;;;;;5459352;26;21074;-73
2024/04/09 03:05:27;;;;;;;14.20;4.80;;;16.70;56.00;;;;;;5442615;26;20689;-73
2024/04/09 03:07:56;;;;;;;13.07;4.90;;;16.70;56.40;;;;;;5445914;26;20614;-73
2024/04/09 03:10:22;;;;;;;8.53;4.10;;;16.70;55.50;;;;;;5439969;26;20677;-73
2024/04/09 03:12:54;;;;;;;11.87;5.03;;;16.70;57.00;;;;;;5436764;26;20622;-73
2024/04/09 03:15:20;;;;;;;11.23;4.40;;;16.50;56.60;;;;;;5440943;26;20570;-73
2024/04/09 03:17:49;;;;;;;18.10;5.07;;;16.60;56.50;;;;;;5439489;26;20633;-73
2024/04/09 03:20:15;;;;;;;17.50;4.57;;;16.60;54.30;;;;;;5448297;26;20565;-73
2024/04/09 03:22:44;;;;;;;11.13;3.83;;;16.60;57.40;;;;;;5442681;26;20567;-73
2024/04/09 03:25:10;;;;;;;14.30;4.40;;;16.50;57.10;;;;;;5447708;26;20560;-73
2024/04/09 03:27:39;;;;;;;12.77;4.23;;;16.40;57.00;;;;;;5447507;26;20650;-73
2024/04/09 03:30:09;;;;;;;14.77;3.80;;;16.30;58.50;;;;;;5435615;26;20609;-73
2024/04/09 03:32:38;;;;;;;16.30;5.20;;;16.30;60.00;;;;;;5442675;26;20651;-73
2024/04/09 03:35:05;;;;;;;11.80;4.70;;;16.30;59.50;;;;;;5434313;26;20545;-73
2024/04/09 03:37:34;;;;;;;16.17;4.47;;;16.30;60.50;;;;;;5441880;26;20646;-73
2024/04/09 03:40:03;;;;;;;17.43;3.60;;;16.10;59.50;;;;;;5446527;26;21121;-73
2024/04/09 03:42:32;;;;;;;11.97;3.97;;;16.20;60.30;;;;;;5448329;26;20627;-73
2024/04/09 03:44:58;;;;;;;11.40;4.07;;;16.10;61.80;;;;;;5445437;26;20614;-73
2024/04/09 03:47:29;;;;;;;12.20;4.60;;;16.10;61.30;;;;;;5438906;26;20948;-73
2024/04/09 03:49:55;;;;;;;8.40;3.83;;;16.10;61.00;;;;;;5447201;26;20601;-73
2024/04/09 03:52:24;;;;;;;15.57;4.20;;;16.00;61.00;;;;;;5438373;26;21138;-73
2024/04/09 03:54:50;;;;;;;24.50;5.20;;;16.10;61.90;;;;;;5442077;26;21117;-73
2024/04/09 03:57:19;;;;;;;15.63;4.43;;;16.00;60.00;;;;;;5446110;26;20550;-73
2024/04/09 03:59:45;;;;;;;12.23;3.90;;;16.00;59.70;;;;;;5447454;26;20543;-73
2024/04/09 04:02:14;;;;;;;12.40;4.90;;;16.00;60.10;;;;;;5447621;26;20631;-73
2024/04/09 04:04:43;;;;;;;18.30;4.83;;;16.10;60.20;;;;;;5447266;26;20591;-73
2024/04/09 04:07:15;;;;;;;17.80;3.80;;;16.10;59.90;;;;;;5446347;26;20567;-73
2024/04/09 04:09:42;;;;;;;15.57;4.17;;;16.10;61.00;;;;;;5441335;26;21103;-73
2024/04/09 04:12:11;;;;;;;20.10;5.10;;;16.10;61.60;;;;;;5441066;26;20610;-73
2024/04/09 04:14:37;;;;;;;10.70;4.90;;;16.00;61.20;;;;;;5430492;26;20559;-73
2024/04/09 04:17:06;;;;;;;9.70;5.13;;;16.00;61.20;;;;;;5433767;26;21134;-73
2024/04/09 04:19:36;;;;;;;19.87;5.80;;;15.90;61.90;;;;;;5432613;26;21013;-73
2024/04/09 04:22:05;;;;;;;14.87;4.80;;;16.00;62.10;;;;;;5435313;26;20599;-73
2024/04/09 04:24:33;;;;;;;14.10;4.60;;;15.90;61.90;;;;;;5444894;26;20625;-73
2024/04/09 04:27:00;;;;;;;14.40;5.30;;;15.90;62.80;;;;;;5434377;26;20554;-73
2024/04/09 04:29:28;;;;;;;13.23;3.93;;;15.90;63.70;;;;;;5447125;26;20552;-73
2024/04/09 04:31:55;;;;;;;19.33;4.63;;;15.80;63.90;;;;;;5445906;26;20561;-73
2024/04/09 04:34:23;;;;;;;11.67;5.13;;;15.80;64.10;;;;;;5448350;26;20589;-73
2024/04/09 04:36:50;;;;;;;13.37;4.10;;;15.80;64.40;;;;;;5447283;26;20609;-73
2024/04/09 04:39:21;;;;;;;13.33;4.20;;;15.70;64.20;;;;;;5434669;26;20553;-73
2024/04/09 04:41:47;;;;;;;20.47;4.63;;;15.70;63.40;;;;;;5446507;26;21034;-73
2024/04/09 04:44:16;;;;;;;16.07;4.70;;;15.60;63.50;;;;;;5431213;26;21210;-73
2024/04/09 04:46:42;;;;;;;27.43;5.90;;;15.60;64.40;;;;;;5443707;26;20598;-73
2024/04/09 04:49:12;;;;;;;20.73;4.83;;;15.50;64.10;;;;;;5444497;26;20597;-73
2024/04/09 04:51:38;;;;;;;15.93;5.47;;;15.50;65.30;;;;;;5443242;26;20590;-72
2024/04/09 04:54:07;;;;;;;13.77;4.93;;;15.50;64.40;;;;;;5435747;26;20902;-72
2024/04/09 04:56:35;;;;;;;12.23;4.43;;;15.50;67.10;;;;;;5446446;26;20601;-72
2024/04/09 04:59:04;;;;;;;16.60;5.33;;;15.40;67.10;;;;;;5445381;26;20796;-72
2024/04/09 05:01:30;;;;;;;14.37;6.40;;;15.30;66.90;;;;;;5445865;26;20550;-73
2024/04/09 05:03:59;;;;;;;20.63;5.83;;;15.20;66.10;;;;;;5430579;26;20555;-73
2024/04/09 05:06:25;;;;;;;19.63;7.50;;;15.30;66.90;;;;;;5443776;26;20545;-72
2024/04/09 05:08:54;;;;;;;18.13;6.27;;;15.30;67.60;;;;;;5445145;26;20561;-75
2024/04/09 05:11:22;;;;;;;14.03;5.13;;;15.30;68.90;;;;;;5445274;26;20557;-75
2024/04/09 05:13:54;;;;;;;14.33;4.50;;;15.20;68.40;;;;;;5445238;26;20613;-75
2024/04/09 05:16:20;;;;;;;18.57;4.30;;;15.40;65.40;;;;;;5445657;26;20573;-75
2024/04/09 05:18:49;;;;;;;16.07;5.00;;;15.50;66.20;;;;;;5434693;26;20553;-75
2024/04/09 05:21:15;;;;;;;10.97;3.83;;;15.70;64.40;;;;;;5447145;26;20566;-75
2024/04/09 05:23:44;;;;;;;12.50;4.20;;;15.70;65.70;;;;;;5449177;26;20562;-76
2024/04/09 05:26:12;;;;;;;11.87;3.20;;;15.70;65.70;;;;;;5440523;26;20569;-74
2024/04/09 05:28:41;;;;;;;19.67;5.30;;;15.70;66.30;;;;;;5445631;26;20546;-74
2024/04/09 05:31:11;;;;;;;13.30;5.00;;;15.70;66.90;;;;;;5425565;26;21185;-74
2024/04/09 05:33:39;;;;;;;16.67;4.40;;;15.70;66.80;;;;;;5437508;26;20564;-74
2024/04/09 05:36:07;;;;;;;18.33;3.27;;;15.70;67.00;;;;;;5437716;26;20543;-74
2024/04/09 05:38:35;;;;;;;10.87;2.83;;;15.80;66.70;;;;;;5432756;26;20566;-74
2024/04/09 05:41:02;;;;;;;9.83;3.77;;;15.80;66.90;;;;;;5443070;26;20555;-74
2024/04/09 05:43:31;;;;;;;9.07;3.23;;;15.80;67.50;;;;;;5434266;26;20617;-74
2024/04/09 05:45:57;;;;;;;9.57;3.17;;;15.90;68.80;;;;;;5438197;26;21161;-74
2024/04/09 05:48:28;;;;;;;10.60;3.37;;;15.90;69.20;;;;;;5439519;26;20570;-74
2024/04/09 05:50:54;;;;;;;9.60;3.00;;;15.90;68.80;;;;;;5436885;26;20626;-74
2024/04/09 05:53:23;;;;;;;13.00;3.70;;;15.90;69.50;;;;;;5439308;26;21047;-74
2024/04/09 05:55:56;;;;;;;7.20;2.57;;;16.00;70.00;;;;;;5438257;26;20546;-74
2024/04/09 05:58:26;;;;;;;14.13;3.73;;;16.10;70.30;;;;;;5440025;26;20656;-74
2024/04/09 06:00:53;;;;;;;13.30;3.60;;;16.10;69.20;;;;;;5438360;26;20601;-74
2024/04/09 06:03:22;;;;;;;12.50;3.10;;;16.10;70.60;;;;;;5445330;26;20609;-74
2024/04/09 06:05:51;;;;;;;6.00;2.17;;;16.20;69.10;;;;;;5442682;26;20891;-74
2024/04/09 06:08:20;;;;;;;13.47;2.93;;;16.20;69.50;;;;;;5444641;26;20561;-74
2024/04/09 06:10:46;;;;;;;4.67;2.10;;;16.20;69.70;;;;;;5442807;26;20601;-74
2024/04/09 06:13:15;;;;;;;6.10;2.60;;;16.20;69.50;;;;;;5445557;26;20566;-75
2024/04/09 06:15:41;;;;;;;6.60;2.27;;;16.20;69.80;;;;;;5452369;26;21298;-75
2024/04/09 06:18:10;;;;;;;4.90;1.63;;;16.20;69.80;;;;;;5450403;26;20617;-75
2024/04/09 06:20:37;;;;;;;9.70;2.80;;;16.10;70.20;;;;;;5453928;26;20593;-75
2024/04/09 06:23:09;;;;;;;8.13;2.73;;;16.10;71.00;;;;;;5441921;26;20561;-74
2024/04/09 06:25:35;;;;;;;8.50;2.80;;;16.10;70.90;;;;;;5449005;26;20554;-75
2024/04/09 06:28:04;;;;;;;4.27;1.87;;;16.10;71.60;;;;;;5448318;26;21086;-74
2024/04/09 06:30:30;;;;;;;11.40;2.70;;;16.10;71.40;;;;;;5443255;26;20578;-74
2024/04/09 06:33:00;;;;;;;7.23;2.17;;;16.20;71.00;;;;;;5446449;26;20677;-74
2024/04/09 06:35:26;;;;;;;7.90;2.23;;;16.20;70.70;;;;;;5449369;26;20614;-74
2024/04/09 06:37:55;;;;;;;8.73;2.47;;;16.20;71.70;;;;;;5449337;26;20679;-73
2024/04/09 06:40:25;;;;;;;5.63;2.20;;;16.20;71.20;;;;;;5449316;26;20558;-71
2024/04/09 06:42:54;;;;;;;4.93;2.13;;;16.30;71.20;;;;;;5446985;26;20565;-73
2024/04/09 06:45:20;;;;;;;7.80;2.10;;;16.30;71.90;;;;;;5445953;26;20958;-72
2024/04/09 06:47:49;;;;;;;8.40;3.00;;;16.40;71.40;;;;;;5441264;26;20608;-73
2024/04/09 06:50:15;;;;;;;6.83;2.30;;;16.50;71.70;;;;;;5444398;26;20993;-74
2024/04/09 06:52:44;;;;;;;11.53;2.83;;;16.50;71.50;;;;;;5437344;26;20672;-73
2024/04/09 06:55:10;;;;;;;7.70;2.40;;;16.60;70.50;;;;;;5440823;26;20674;-73
2024/04/09 06:57:42;;;;;;;9.23;2.00;;;16.60;70.40;;;;;;5442212;26;20563;-73
2024/04/09 07:00:09;;;;;;;6.63;2.00;;;16.60;71.80;;;;;;5446456;26;20578;-73
2024/04/09 07:02:38;;;;;;;12.93;1.97;;;16.70;72.30;;;;;;5446123;26;20648;-73
2024/04/09 07:05:05;;;;;;;8.17;2.07;;;16.80;72.40;;;;;;5439006;26;20604;-74
2024/04/09 07:07:34;;;;;;;6.80;2.40;;;16.90;72.70;;;;;;5441684;26;20679;-74
2024/04/09 07:10:01;;;;;;;9.63;2.93;;;17.00;72.40;;;;;;5450183;26;20563;-73
2024/04/09 07:12:29;;;;;;;9.90;2.40;;;17.10;72.00;;;;;;5439701;26;20635;-73
2024/04/09 07:14:59;;;;;;;7.63;2.30;;;17.10;72.90;;;;;;5432488;26;21328;-73
2024/04/09 07:17:28;;;;;;;9.57;2.23;;;17.00;72.60;;;;;;5447723;26;20665;-73
2024/04/09 07:19:55;;;;;;;6.63;2.50;;;16.90;72.50;;;;;;5442837;26;20633;-74
2024/04/09 07:22:24;;;;;;;9.33;2.47;;;16.90;72.30;;;;;;5440409;26;20573;-74
2024/04/09 07:24:50;;;;;;;5.73;2.00;;;16.90;73.60;;;;;;5436046;26;20561;-74
2024/04/09 07:27:19;;;;;;;4.93;1.73;;;16.90;74.40;;;;;;5438482;26;20900;-74
2024/04/09 07:29:46;;;;;;;3.83;1.53;;;16.90;74.70;;;;;;5447076;26;20549;-74
2024/04/09 07:32:17;;;;;;;6.93;2.77;;;16.70;74.80;;;;;;5442638;26;20563;-74
2024/04/09 07:34:46;;;;;;;5.57;1.87;;;16.60;75.70;;;;;;5443149;26;20602;-73
2024/04/09 07:37:14;;;;;;;5.70;1.80;;;16.50;76.30;;;;;;5448932;26;20603;-74
2024/04/09 07:39:44;;;;;;;5.27;1.80;;;16.40;76.60;;;;;;5444453;26;21190;-73
2024/04/09 07:42:13;;;;;;;6.43;2.00;;;16.30;77.30;;;;;;5441668;26;20566;-73
2024/04/09 07:44:39;;;;;;;8.80;2.27;;;16.40;77.90;;;;;;5442913;26;20554;-72
2024/04/09 07:47:10;;;;;;;5.80;1.93;;;16.30;78.60;;;;;;5445751;26;20605;-72
2024/04/09 07:49:39;;;;;;;4.60;2.17;;;16.20;79.10;;;;;;5447921;26;20661;-72
2024/04/09 07:52:09;;;;;;;9.27;1.93;;;16.10;79.70;;;;;;5432766;26;20610;-74
2024/04/09 07:54:35;;;;;;;4.63;1.73;;;15.90;81.40;;;;;;5445965;26;21004;-74
2024/04/09 07:57:04;;;;;;;5.20;1.60;;;15.60;82.80;;;;;;5447100;26;21096;-75
2024/04/09 07:59:30;;;;;;;3.87;1.63;;;15.30;83.20;;;;;;5448121;26;20563;-74
2024/04/09 08:01:59;;;;;;;3.20;1.33;;;14.90;84.10;;;;;;5447818;26;20613;-75
2024/04/09 08:04:26;;;;;;;3.63;1.57;;;14.70;85.00;;;;;;5447827;26;20609;-74
2024/04/09 08:06:57;;;;;;;2.20;1.10;;;14.50;85.50;;;;;;5439862;26;20703;-75
2024/04/09 08:09:23;;;;;;;2.07;1.20;;;14.10;85.60;;;;;;5447576;26;20564;-74
2024/04/09 08:11:53;;;;;;;2.47;1.13;;;13.90;87.20;;;;;;5446710;26;20973;-74
2024/04/09 08:14:22;;;;;;;3.40;0.53;;;13.70;85.50;;;;;;5448450;26;20610;-76
2024/04/09 08:16:51;;;;;;;5.20;0.83;;;13.40;83.70;;;;;;5448122;26;20571;-76
2024/04/09 08:19:17;;;;;;;1.47;0.50;;;13.20;84.30;;;;;;5447400;26;20641;-75
2024/04/09 08:21:46;;;;;;;5.40;0.90;;;13.20;82.50;;;;;;5446355;26;20560;-74
2024/04/09 08:24:15;;;;;;;2.60;0.73;;;13.00;81.40;;;;;;5438719;26;21108;-75
2024/04/09 08:26:44;;;;;;;4.27;1.30;;;12.80;80.30;;;;;;5453465;26;20610;-76
2024/04/09 08:29:14;;;;;;;3.97;1.50;;;12.70;78.90;;;;;;5448309;26;20553;-77
2024/04/09 08:31:44;;;;;;;1.60;0.50;;;12.60;79.60;;;;;;5447899;26;20613;-73
2024/04/09 08:34:10;;;;;;;3.70;0.67;;;12.50;78.70;;;;;;5448479;26;20561;-72
2024/04/09 08:36:40;;;;;;;2.67;0.60;;;12.40;78.50;;;;;;5445942;26;20609;-74
2024/04/09 08:39:07;;;;;;;3.57;0.77;;;12.20;78.70;;;;;;5447728;26;20892;-71
2024/04/09 08:41:39;;;;;;;1.60;0.47;;;12.20;78.70;;;;;;5446126;26;20623;-73
2024/04/09 08:44:08;;;;;;;1.50;0.50;;;12.00;79.20;;;;;;5431917;26;20596;-72
2024/04/09 08:46:39;;;;;;;1.57;0.30;;;11.90;80.30;;;;;;5441809;26;20647;-73
2024/04/09 08:49:06;;;;;;;1.30;0.40;;;11.90;80.60;;;;;;5447314;26;20552;-74
2024/04/09 08:51:36;;;;;;;2.63;0.60;;;11.80;81.40;;;;;;5448077;26;20562;-74
2024/04/09 08:54:04;;;;;;;2.10;0.60;;;11.90;81.90;;;;;;5449887;26;20622;-76
2024/04/09 08:56:32;;;;;;;2.83;0.57;;;11.90;81.60;;;;;;5456631;26;20557;-75
2024/04/09 08:59:04;;;;;;;5.03;0.90;;;11.80;80.60;;;;;;5452467;26;20602;-73
2024/04/09 09:01:33;;;;;;;2.10;1.03;;;11.80;80.60;;;;;;5450200;26;20890;-72
2024/04/09 09:03:59;;;;;;;2.80;1.27;;;11.80;80.60;;;;;;5450534;26;20611;-72
2024/04/09 09:06:30;;;;;;;2.07;0.90;;;11.80;79.80;;;;;;5444711;26;20599;-72
2024/04/09 09:08:57;;;;;;;2.23;0.93;;;11.70;79.40;;;;;;5450364;26;20589;-75
2024/04/09 09:11:26;;;;;;;1.27;0.40;;;11.70;79.70;;;;;;5449549;26;20558;-75
2024/04/09 09:13:52;;;;;;;2.30;0.60;;;11.60;77.90;;;;;;5451170;26;20610;-75
2024/04/09 09:16:24;;;;;;;1.40;0.43;;;11.50;76.90;;;;;;5437886;26;20623;-76
2024/04/09 09:18:50;;;;;;;6.40;0.77;;;11.40;76.80;;;;;;5440840;26;20566;-74
2024/04/09 09:21:19;;;;;;;1.40;0.40;;;11.30;76.90;;;;;;5451892;26;21145;-78
2024/04/09 09:23:45;;;;;;;2.10;0.40;;;11.20;76.40;;;;;;5456184;26;20594;-75
2024/04/09 09:26:14;;;;;;;1.17;0.43;;;11.20;76.40;;;;;;5454392;26;20639;-75
2024/04/09 09:28:42;;;;;;;1.20;0.40;;;11.30;76.60;;;;;;5449498;26;20538;-75
2024/04/09 09:31:13;;;;;;;1.60;0.43;;;11.20;76.50;;;;;;5436499;26;20618;-74
2024/04/09 09:33:46;;;;;;;1.77;0.60;;;11.10;76.70;;;;;;5450830;26;20700;-76
2024/04/09 09:36:15;;;;;;;1.00;0.30;;;11.30;76.90;;;;;;5449990;26;20649;-74
2024/04/09 09:38:44;;;;;;;1.00;0.40;;;11.20;75.60;;;;;;5450094;26;21086;-72
2024/04/09 09:41:14;;;;;;;2.10;0.70;;;11.10;75.80;;;;;;5449674;26;20561;-73
2024/04/09 09:43:42;;;;;;;2.23;0.57;;;10.90;75.40;;;;;;5458674;26;21189;-73
2024/04/09 09:46:15;;;;;;;1.20;0.37;;;11.10;76.10;;;;;;5452190;26;20601;-72
2024/04/09 09:48:46;;;;;;;3.10;0.50;;;11.00;75.00;;;;;;5464359;26;20549;-72
2024/04/09 09:51:15;;;;;;;1.47;0.40;;;10.80;75.00;;;;;;5449681;26;20562;-75
2024/04/09 09:53:41;;;;;;;1.20;0.40;;;10.70;74.80;;;;;;5449118;26;20554;-76
2024/04/09 09:56:11;;;;;;;2.10;0.50;;;10.70;75.20;;;;;;5449073;26;20936;-75
2024/04/09 09:58:39;;;;;;;1.90;0.50;;;10.60;75.50;;;;;;5449535;26;20942;-76
2024/04/09 10:01:10;;;;;;;1.80;0.50;;;10.50;76.10;;;;;;5447453;26;20558;-88
2024/04/09 10:03:39;;;;;;;1.50;0.40;;;10.70;75.70;;;;;;5449185;26;20554;-73
2024/04/09 10:06:11;;;;;;;1.10;0.40;;;10.60;75.80;;;;;;5447692;26;20642;-74
2024/04/09 10:08:41;;;;;;;1.37;0.50;;;10.60;75.80;;;;;;5446590;26;20605;-73
2024/04/09 10:11:10;;;;;;;1.00;0.40;;;10.60;76.00;;;;;;5450371;26;20542;-74
2024/04/09 10:13:48;;;;;;;1.30;0.50;;;10.60;76.10;;;;;;5441316;26;20558;-73
2024/04/09 10:16:19;;;;;;;2.43;0.60;;;10.60;75.90;;;;;;5436512;26;20655;-73
2024/04/09 10:18:47;;;;;;;1.10;0.50;;;10.70;76.20;;;;;;5448178;26;20546;-75
2024/04/09 10:21:28;;;;;;;1.63;0.50;;;10.70;75.90;;;;;;5448904;26;20610;-77
2024/04/09 10:23:59;;;;;;;1.97;0.77;;;10.80;76.00;;;;;;5450025;26;20610;-76
2024/04/09 10:26:28;;;;;;;1.10;0.30;;;10.90;76.30;;;;;;5449447;26;21013;-75
2024/04/09 10:29:02;;;;;;;4.37;0.50;;;10.90;75.70;;;;;;5449061;26;20554;-74
2024/04/09 10:31:33;;;;;;;1.20;0.30;;;10.80;75.00;;;;;;5442201;26;20640;-75
2024/04/09 10:34:00;;;;;;;1.00;0.30;;;10.80;75.50;;;;;;5440661;26;20554;-75
2024/04/09 10:36:32;;;;;;;1.97;0.50;;;10.60;74.90;;;;;;5442712;26;20562;-74
2024/04/09 10:38:59;;;;;;;1.30;0.50;;;10.60;75.10;;;;;;5442167;26;20602;-74
2024/04/09 10:41:28;;;;;;;1.00;0.40;;;10.70;75.30;;;;;;5443555;26;20639;-74
2024/04/09 10:43:54;;;;;;;1.10;0.40;;;10.60;74.70;;;;;;5455277;26;20549;-73
2024/04/09 10:46:23;;;;;;;1.20;0.40;;;10.60;73.70;;;;;;5447009;26;21125;-74
2024/04/09 10:48:52;;;;;;;1.60;0.60;;;10.70;74.30;;;;;;5439892;26;20561;-77
2024/04/09 10:51:21;;;;;;;2.30;1.00;;;10.70;74.00;;;;;;5446126;26;20647;-79
2024/04/09 10:53:50;;;;;;;2.90;1.60;;;10.70;74.30;;;;;;5437984;26;20593;-78
2024/04/09 10:56:19;;;;;;;1.10;0.30;;;10.80;75.00;;;;;;5439242;26;20570;-82
2024/04/09 10:58:46;;;;;;;1.00;0.30;;;10.60;74.40;;;;;;5432371;26;20648;-83
2024/04/09 11:01:18;;;;;;;3.40;0.97;;;10.50;74.90;;;;;;5440401;26;21673;-82
2024/04/09 11:03:45;;;;;;;1.33;0.37;;;10.50;74.70;;;;;;5426486;26;20725;-79
2024/04/09 11:06:16;;;;;;;1.00;0.33;;;10.30;74.80;;;;;;5439145;26;20609;-79
2024/04/09 11:08:53;;;;;;;3.23;0.70;;;10.50;74.90;;;;;;5440690;26;21745;-78
2024/04/09 11:11:22;;;;;;;1.30;0.60;;;10.40;74.90;;;;;;5441965;26;20549;-76
2024/04/09 11:13:49;;;;;;;1.50;0.50;;;10.30;75.40;;;;;;5444276;26;20709;-75
2024/04/09 11:16:21;;;;;;;1.33;0.40;;;10.40;76.00;;;;;;5440711;26;20593;-77
2024/04/09 11:18:58;;;;;;;1.17;0.40;;;10.50;74.90;;;;;;5452512;26;20278;-76
2024/04/09 11:21:27;;;;;;;0.90;0.30;;;10.50;75.60;;;;;;5436166;26;20565;-74
2024/04/09 11:23:56;;;;;;;1.83;0.50;;;10.30;74.10;;;;;;5440154;26;20622;-75
2024/04/09 11:26:25;;;;;;;1.70;0.40;;;10.30;74.10;;;;;;5429353;26;20562;-75
2024/04/09 11:28:52;;;;;;;3.13;0.73;;;10.30;74.10;;;;;;5454929;26;20558;-74
2024/04/09 11:31:25;;;;;;;0.93;0.30;;;10.30;73.60;;;;;;5461434;26;20631;-75
2024/04/09 11:33:51;;;;;;;0.93;0.30;;;10.30;74.30;;;;;;5457069;26;20684;-75
2024/04/09 11:39:41;;;;;;;1.10;0.40;;;10.10;75.00;;;;;;5443112;26;20819;-74
2024/04/09 11:42:07;;;;;;;1.10;0.30;;;10.20;74.30;;;;;;5442820;26;20545;-74
2024/04/09 11:44:36;;;;;;;2.20;0.70;;;10.20;73.40;;;;;;5446854;26;20610;-76
2024/04/09 11:47:03;;;;;;;1.80;0.40;;;10.20;73.50;;;;;;5440862;26;20610;-75
2024/04/09 11:49:32;;;;;;;2.07;0.53;;;10.20;72.80;;;;;;5440108;26;20625;-75
2024/04/09 11:51:58;;;;;;;1.40;0.50;;;10.20;73.60;;;;;;5434325;26;20711;-76
2024/04/09 11:54:27;;;;;;;1.40;0.50;;;10.10;74.30;;;;;;5455374;26;20636;-75
2024/04/09 11:56:56;;;;;;;2.23;0.40;;;10.00;73.90;;;;;;5442872;26;21158;-75
2024/04/09 11:59:24;;;;;;;1.80;0.70;;;10.00;73.50;;;;;;5444502;26;20558;-75
2024/04/09 12:01:51;;;;;;;2.80;0.60;;;10.00;73.00;;;;;;5440434;26;20621;-75
2024/04/09 12:04:20;;;;;;;1.90;0.43;;;9.90;75.70;;;;;;5433458;26;20564;-75
2024/04/09 12:06:46;;;;;;;1.10;0.40;;;9.90;75.80;;;;;;5441187;26;21069;-75
2024/04/09 12:09:15;;;;;;;1.10;0.30;;;10.00;75.00;;;;;;5438023;26;20619;-75
2024/04/09 12:11:41;;;;;;;3.00;1.87;;;9.90;75.30;;;;;;5437604;26;21162;-75
2024/04/09 12:14:13;;;;;;;1.40;0.73;;;10.00;74.60;;;;;;5435174;26;20566;-75
2024/04/09 12:16:42;;;;;;;1.00;0.40;;;10.00;74.30;;;;;;5431411;26;20618;-74
2024/04/09 12:19:12;;;;;;;2.90;0.70;;;10.00;73.90;;;;;;5429594;26;20562;-71
2024/04/09 12:21:39;;;;;;;1.50;0.50;;;10.10;74.10;;;;;;5433037;26;20670;-75
2024/04/09 12:24:08;;;;;;;1.50;0.60;;;10.10;73.20;;;;;;5437393;26;20562;-75
2024/04/09 12:26:34;;;;;;;1.57;0.97;;;10.20;73.90;;;;;;5431653;26;20546;-73
2024/04/09 12:29:03;;;;;;;0.93;0.30;;;10.10;73.00;;;;;;5441773;26;20602;-74
2024/04/09 12:31:32;;;;;;;3.10;0.80;;;10.10;72.40;;;;;;5446374;26;20558;-74
2024/04/09 12:34:01;;;;;;;4.60;0.60;;;10.10;72.60;;;;;;5445723;26;20546;-74
2024/04/09 12:36:27;;;;;;;1.40;0.50;;;10.20;72.70;;;;;;5446620;26;20928;-74
2024/04/09 12:38:56;;;;;;;1.10;0.40;;;10.30;72.00;;;;;;5445296;26;20618;-74
2024/04/09 12:41:23;;;;;;;1.60;0.50;;;10.30;72.60;;;;;;5446628;26;20546;-74
2024/04/09 12:43:51;;;;;;;1.30;0.47;;;10.30;72.90;;;;;;5445598;26;21183;-74
2024/04/09 12:46:18;;;;;;;1.17;0.40;;;10.40;72.20;;;;;;5446112;26;20583;-74
2024/04/09 12:48:49;;;;;;;2.43;1.10;;;10.40;70.50;;;;;;5444710;26;21032;-75
2024/04/09 12:51:15;;;;;;;1.60;0.70;;;10.30;70.90;;;;;;5429566;26;20607;-75
2024/04/09 12:53:44;;;;;;;1.60;0.83;;;10.20;68.60;;;;;;5425725;26;20573;-74